Airfield :
LOGIN :

Register | Disclaimer

   EN    FR    IT 

 










Legend :    VFR   Marginal VFR   IFR   Intensive IFR   Very Intensive IFR
Visi :
Ceiling :
>= 8 km
>= 3000ft
5 to 8 km
1000 to 3000 ft
1500m to 5 km
500 to 1000 ft
800 to 1500m
200 to 500 ft
< 800m
< 200 ft
Symbols :   Thunderstorms  Fog  Heavy snow  Heavy precipitations  Wind > 20 kt
SIGMETs :     Misc.  Thunderstorms  Icing  Turbulence  Mountain Waves  Volcanic Ashes







- Airport Elevation : 184 ft
- IATA code : BRU


EBBR - Bruxelles

CURRENT METAR :
  • 192150Z 31007KT 1500 BR SCT001 BKN002 11/11 Q1007 TEMPO 0700 FG BKN001

EXPIRED METARs :
  • 192120Z 32006KT 2000 -DZ SCT002 BKN003 11/11 Q1007 NOSIG
  • 192050Z 32005KT 290V350 2000 -DZ SCT002 BKN003 11/11 Q1007 NOSIG
  • 192020Z 33007KT 300V360 2500 -DZ SCT003 BKN004 11/11 Q1007 BECMG 1400 BR BKN003
  • 191950Z 32009KT 3000 -DZ SCT003 BKN005 12/11 Q1007 BECMG 1400 BR BKN004
  • 191920Z 30008KT 3000 -DZ SCT004 BKN005 12/11 Q1007 BECMG 1400 BR BKN004

TAF COR TAF EBBR
Valid from the 19 at 21:00 until the 21 at 00:00 UTC


192016Z 1921/2024 34007KT 7000 FEW030TCU SCT045
BECMG 1921/1923 3500 BR BKN005
TEMPO 1921/2024 1500 -DZ BR BKN003
PROB40 2002/2008 0400 FG BKN001
TEMPO 2011/2016 6000 NSW BKN013
No reported NOTAMs for that airfield.



MET'MAP, your aeronautical weather chart ! - Copyright ORBIFLY December 2007 - Disclaimer

ORBIFLY MET'MAP TEAM :

Programming & Development : Alexandra Zaïnal
Concept & Development : Baudouin d'Aumeries
Co-Development & Prog : Marc-Olivier Méhu
Technical & hardware support : Manuel Goepfert

Contact : metmap@orbifly.com




SOURCES & CREDITS :

   NOAA